Orbital elements of FENGYUN 1C DEB
| Launched | 9 May 1999 |
| Flight ended | – |
| Launch site | Taiyuan Space Center, PRC |
| Owner | People's Republic of China |
| NORAD ID | 30131 |
| Date fetched |
Epoch osculation |
Inc. [°] |
Ecc. | RA asc node [hr] |
Arg Peri. [°] |
Mean anom [°] |
Mean motion [rev/day] |
Abs. mag |
| Date fetched |
Epoch osculation |
Inc. [°] |
Ecc. | RA asc node [hr] |
Arg Peri. [°] |
Mean anom [°] |
Mean motion [rev/day] |
Abs. mag |
| 2026 May 03 17:57 | 2026 Apr 30 06:06:01 | 99.0711 | 0.00825 | 14.7339 | 123.0396 | 258.8718 | 14.22657 | – |
| 2026 May 02 17:57 | 2026 Apr 30 06:06:01 | 99.0711 | 0.00825 | 14.7339 | 123.0396 | 258.8718 | 14.22657 | – |
| 2026 May 01 17:56 | 2026 Apr 30 06:06:01 | 99.0711 | 0.00825 | 14.7339 | 123.0396 | 258.8718 | 14.22657 | – |
| 2026 Apr 30 17:56 | 2026 Apr 30 06:06:01 | 99.0711 | 0.00825 | 14.7339 | 123.0396 | 258.8718 | 14.22657 | – |
| 2026 Apr 29 17:57 | 2026 Apr 24 06:49:57 | 99.0699 | 0.00829 | 14.3243 | 139.6108 | 258.8718 | 14.22657 | – |
| 2026 Apr 28 17:56 | 2026 Apr 24 06:49:57 | 99.0699 | 0.00829 | 14.3243 | 139.6108 | 258.8718 | 14.22657 | – |
| 2026 Apr 27 17:58 | 2026 Apr 24 06:49:57 | 99.0699 | 0.00829 | 14.3243 | 139.6108 | 258.8718 | 14.22657 | – |
| 2026 Apr 26 17:58 | 2026 Apr 24 06:49:57 | 99.0699 | 0.00829 | 14.3243 | 139.6108 | 258.8718 | 14.22657 | – |
| 2026 Apr 25 17:58 | 2026 Apr 24 06:49:57 | 99.0699 | 0.00829 | 14.3243 | 139.6108 | 258.8718 | 14.22657 | – |
| 2026 Apr 24 17:59 | 2026 Apr 24 06:49:57 | 99.0699 | 0.00829 | 14.3243 | 139.6108 | 258.8718 | 14.22657 | – |
| 2026 Apr 23 17:57 | 2026 Apr 19 05:07:33 | 99.0704 | 0.00829 | 13.9763 | 153.6567 | 258.8718 | 14.22657 | – |
| 2026 Apr 22 17:57 | 2026 Apr 19 05:07:33 | 99.0704 | 0.00829 | 13.9763 | 153.6567 | 258.8718 | 14.22657 | – |
| 2026 Apr 21 17:57 | 2026 Apr 19 05:07:33 | 99.0704 | 0.00829 | 13.9763 | 153.6567 | 258.8718 | 14.22657 | – |
| 2026 Apr 20 17:57 | 2026 Apr 19 05:07:33 | 99.0704 | 0.00829 | 13.9763 | 153.6567 | 258.8718 | 14.22657 | – |
| 2026 Apr 19 17:58 | 2026 Apr 19 05:07:33 | 99.0704 | 0.00829 | 13.9763 | 153.6567 | 258.8718 | 14.22657 | – |
| 2026 Apr 18 17:56 | 2026 Apr 13 05:38:12 | 99.0694 | 0.00829 | 13.5661 | 170.2264 | 258.8718 | 14.22657 | – |
| 2026 Apr 16 17:57 | 2026 Apr 13 05:38:12 | 99.0694 | 0.00829 | 13.5661 | 170.2264 | 258.8718 | 14.22657 | – |
| 2026 Apr 14 17:57 | 2026 Apr 13 05:38:12 | 99.0694 | 0.00829 | 13.5661 | 170.2264 | 258.8718 | 14.22657 | – |
| 2026 Apr 13 17:57 | 2026 Apr 13 05:38:12 | 99.0694 | 0.00829 | 13.5661 | 170.2264 | 258.8718 | 14.22657 | – |
| 2026 Apr 12 17:57 | 2026 Apr 08 05:46:30 | 99.0690 | 0.00827 | 13.2235 | 184.0915 | 258.8718 | 14.22657 | – |
| 2026 Apr 11 17:57 | 2026 Apr 08 05:46:30 | 99.0690 | 0.00827 | 13.2235 | 184.0915 | 258.8718 | 14.22657 | – |
| 2026 Apr 10 17:58 | 2026 Apr 08 05:46:30 | 99.0690 | 0.00827 | 13.2235 | 184.0915 | 258.8718 | 14.22657 | – |
| 2026 Apr 09 18:01 | 2026 Apr 08 05:46:30 | 99.0690 | 0.00827 | 13.2235 | 184.0915 | 258.8718 | 14.22657 | – |
| 2026 Apr 08 17:57 | 2026 Apr 08 05:46:30 | 99.0690 | 0.00827 | 13.2235 | 184.0915 | 258.8718 | 14.22657 | – |
| 2026 Apr 07 17:57 | 2026 Apr 02 04:44:04 | 99.0696 | 0.00823 | 12.8089 | 200.9239 | 258.8718 | 14.22657 | – |
| 2026 Apr 06 17:57 | 2026 Apr 02 04:44:04 | 99.0696 | 0.00823 | 12.8089 | 200.9239 | 258.8718 | 14.22657 | – |